Time;durP1;ratioP1;P1;durP2;ratioP2;P2;SDS_P1;SDS_P2;PMS_P1;PMS_P2;Temp;Humidity;BMP_temperature;BMP_pressure;BME280_temperature;BME280_humidity;BME280_pressure;Samples;Min_cycle;Max_cycle;Signal;HPM_P1;HPM_P2
2023/11/13 00:01:38;;;;;;;61.20;33.70;;;;;;;-128.00;-1.00;-1.00;105382;1253;1004371;-79
2023/11/13 00:04:04;;;;;;;79.60;47.80;;;;;;;-128.00;-1.00;-1.00;105434;1252;1004280;-80
2023/11/13 00:06:31;;;;;;;87.90;61.50;;;;;;;-128.00;-1.00;-1.00;105472;1254;1005340;-79
2023/11/13 00:08:58;;;;;;;73.70;42.90;;;;;;;-128.00;-1.00;-1.00;105467;1254;1004167;-79
2023/11/13 00:11:24;;;;;;;58.30;30.00;;;;;;;-128.00;-1.00;-1.00;105463;1253;1004872;-80
2023/11/13 00:13:51;;;;;;;55.60;29.70;;;;;;;-128.00;-1.00;-1.00;105455;1252;1003509;-79
2023/11/13 00:16:17;;;;;;;64.30;38.00;;;;;;;-128.00;-1.00;-1.00;105441;1253;1004630;-80
2023/11/13 00:18:44;;;;;;;62.60;39.10;;;;;;;-128.00;-1.00;-1.00;105437;1253;1004670;-79
2023/11/13 00:21:15;;;;;;;68.70;42.40;;;;;;;-128.00;-1.00;-1.00;105486;1252;1004159;-79
2023/11/13 00:23:43;;;;;;;47.30;25.20;;;;;;;-128.00;-1.00;-1.00;105433;1254;1058876;-79
2023/11/13 00:26:10;;;;;;;45.90;24.60;;;;;;;-128.00;-1.00;-1.00;105418;1254;1004774;-80
2023/11/13 00:28:37;;;;;;;50.00;27.00;;;;;;;-128.00;-1.00;-1.00;105375;1254;1003565;-79
2023/11/13 00:31:04;;;;;;;51.90;30.40;;;;;;;-128.00;-1.00;-1.00;105423;1253;1004969;-79
2023/11/13 00:33:30;;;;;;;59.60;34.10;;;;;;;-128.00;-1.00;-1.00;105434;1253;1004869;-79
2023/11/13 00:35:57;;;;;;;55.50;30.80;;;;;;;-128.00;-1.00;-1.00;105405;1253;1003546;-80
2023/11/13 00:38:23;;;;;;;108.40;44.20;;;;;;;-128.00;-1.00;-1.00;105386;1253;1004375;-79
2023/11/13 00:40:50;;;;;;;89.60;55.70;;;;;;;-128.00;-1.00;-1.00;105442;1253;1004446;-79
2023/11/13 00:43:17;;;;;;;78.90;55.70;;;;;;;-128.00;-1.00;-1.00;105409;1254;1004056;-80
2023/11/13 00:45:43;;;;;;;73.90;39.80;;;;;;;-128.00;-1.00;-1.00;105423;1252;1003739;-80
2023/11/13 00:48:10;;;;;;;59.20;32.70;;;;;;;-128.00;-1.00;-1.00;105405;1252;1004429;-79
2023/11/13 00:50:36;;;;;;;50.40;28.20;;;;;;;-128.00;-1.00;-1.00;105402;1253;1004506;-79
2023/11/13 00:53:03;;;;;;;53.90;29.20;;;;;;;-128.00;-1.00;-1.00;105402;1253;1004956;-80
2023/11/13 00:55:29;;;;;;;58.00;36.20;;;;;;;-128.00;-1.00;-1.00;105415;1252;1004171;-80
2023/11/13 00:57:56;;;;;;;49.40;30.80;;;;;;;-128.00;-1.00;-1.00;105427;1254;1005090;-80
2023/11/13 01:00:23;;;;;;;49.00;28.00;;;;;;;-128.00;-1.00;-1.00;105406;1254;1003736;-80
2023/11/13 01:02:49;;;;;;;45.60;25.00;;;;;;;-128.00;-1.00;-1.00;105408;1252;1004286;-80
2023/11/13 01:05:16;;;;;;;52.70;29.50;;;;;;;-128.00;-1.00;-1.00;105416;1252;1004204;-81
2023/11/13 01:07:42;;;;;;;61.10;38.10;;;;;;;-128.00;-1.00;-1.00;105450;1253;1004476;-79
2023/11/13 01:10:09;;;;;;;47.50;26.10;;;;;;;-128.00;-1.00;-1.00;105467;1253;1004184;-80
2023/11/13 01:12:36;;;;;;;47.60;24.80;;;;;;;-128.00;-1.00;-1.00;105435;1253;1003737;-79
2023/11/13 01:15:06;;;;;;;47.50;25.80;;;;;;;-128.00;-1.00;-1.00;105463;1254;1003984;-80
2023/11/13 01:17:33;;;;;;;41.40;23.90;;;;;;;-128.00;-1.00;-1.00;105459;1253;1047624;-79
2023/11/13 01:20:00;;;;;;;64.10;39.30;;;;;;;-128.00;-1.00;-1.00;105450;1253;1003617;-79
2023/11/13 01:22:26;;;;;;;50.70;24.40;;;;;;;-128.00;-1.00;-1.00;105415;1254;1005205;-80
2023/11/13 01:24:53;;;;;;;42.00;23.50;;;;;;;-128.00;-1.00;-1.00;105486;1253;1003705;-79
2023/11/13 01:27:19;;;;;;;37.00;22.50;;;;;;;-128.00;-1.00;-1.00;105427;1253;1004338;-79
2023/11/13 01:29:46;;;;;;;48.20;30.30;;;;;;;-128.00;-1.00;-1.00;105473;1254;1004756;-80
2023/11/13 01:32:12;;;;;;;49.50;34.40;;;;;;;-128.00;-1.00;-1.00;105423;1253;1004592;-79
2023/11/13 01:34:39;;;;;;;43.20;24.80;;;;;;;-128.00;-1.00;-1.00;105462;1254;1003892;-80
2023/11/13 01:37:05;;;;;;;37.40;21.30;;;;;;;-128.00;-1.00;-1.00;105420;1253;1003677;-79
2023/11/13 01:39:32;;;;;;;35.70;19.00;;;;;;;-128.00;-1.00;-1.00;105470;1254;1004609;-80
2023/11/13 01:41:59;;;;;;;37.90;22.60;;;;;;;-128.00;-1.00;-1.00;105447;1253;1004420;-79
2023/11/13 01:44:25;;;;;;;39.70;24.60;;;;;;;-128.00;-1.00;-1.00;105482;1252;1004136;-80
2023/11/13 01:46:52;;;;;;;37.00;22.50;;;;;;;-128.00;-1.00;-1.00;105463;1254;1004908;-80
2023/11/13 01:49:19;;;;;;;41.80;18.80;;;;;;;-128.00;-1.00;-1.00;105370;1253;1004298;-80
2023/11/13 01:51:47;;;;;;;34.80;17.80;;;;;;;-128.00;-1.00;-1.00;105414;1254;1004391;-80
2023/11/13 01:54:15;;;;;;;35.20;21.50;;;;;;;-128.00;-1.00;-1.00;105485;1252;1004072;-80
2023/11/13 01:56:43;;;;;;;37.80;20.30;;;;;;;-128.00;-1.00;-1.00;105468;1254;1004192;-79
2023/11/13 01:59:12;;;;;;;36.80;23.50;;;;;;;-128.00;-1.00;-1.00;105499;1253;1005072;-80
2023/11/13 02:01:39;;;;;;;;;;;;;;;-128.00;-1.00;-1.00;105416;1252;1058764;-80
2023/11/13 02:04:06;;;;;;;31.50;17.40;;;;;;;-128.00;-1.00;-1.00;105434;1252;1004957;-80
2023/11/13 02:06:32;;;;;;;34.00;19.70;;;;;;;-128.00;-1.00;-1.00;105410;1253;1004686;-79
2023/11/13 02:08:59;;;;;;;45.50;25.40;;;;;;;-128.00;-1.00;-1.00;105347;1253;1004314;-80
2023/11/13 02:11:25;;;;;;;40.10;20.60;;;;;;;-128.00;-1.00;-1.00;105462;1253;1005117;-80
2023/11/13 02:13:52;;;;;;;36.00;19.50;;;;;;;-128.00;-1.00;-1.00;105428;1252;1004741;-80
2023/11/13 02:16:19;;;;;;;36.00;20.00;;;;;;;-128.00;-1.00;-1.00;105422;1253;1004612;-80
2023/11/13 02:18:47;;;;;;;44.00;27.40;;;;;;;-128.00;-1.00;-1.00;105437;1253;1004813;-80
2023/11/13 02:21:13;;;;;;;39.70;22.60;;;;;;;-128.00;-1.00;-1.00;105464;1253;1004545;-79
2023/11/13 02:23:40;;;;;;;38.50;21.10;;;;;;;-128.00;-1.00;-1.00;105412;1253;1005122;-80
2023/11/13 02:26:12;;;;;;;33.70;20.00;;;;;;;-128.00;-1.00;-1.00;105318;1253;1005081;-81
2023/11/13 02:28:39;;;;;;;31.80;20.50;;;;;;;-128.00;-1.00;-1.00;105420;1253;1045379;-80
2023/11/13 02:31:05;;;;;;;48.90;32.70;;;;;;;-128.00;-1.00;-1.00;105456;1252;1005168;-80
2023/11/13 02:33:32;;;;;;;43.20;23.90;;;;;;;-128.00;-1.00;-1.00;105447;1253;1005034;-80
2023/11/13 02:35:58;;;;;;;39.90;24.10;;;;;;;-128.00;-1.00;-1.00;105479;1253;1003493;-79
2023/11/13 02:38:25;;;;;;;34.70;21.00;;;;;;;-128.00;-1.00;-1.00;105418;1253;1004919;-79
2023/11/13 02:40:52;;;;;;;38.30;20.50;;;;;;;-128.00;-1.00;-1.00;105484;1253;1004227;-80
2023/11/13 02:43:19;;;;;;;61.80;43.90;;;;;;;-128.00;-1.00;-1.00;105451;1253;1004840;-80
2023/11/13 02:45:45;;;;;;;61.80;39.00;;;;;;;-128.00;-1.00;-1.00;105477;1252;1004784;-79
2023/11/13 02:48:12;;;;;;;38.20;22.80;;;;;;;-128.00;-1.00;-1.00;105404;1252;1005156;-80
2023/11/13 02:50:40;;;;;;;37.50;20.60;;;;;;;-128.00;-1.00;-1.00;105451;1252;1004416;-79
2023/11/13 02:53:06;;;;;;;58.10;25.70;;;;;;;-128.00;-1.00;-1.00;105420;1252;1004394;-79
2023/11/13 02:55:33;;;;;;;42.10;28.20;;;;;;;-128.00;-1.00;-1.00;105493;1252;1005268;-79
2023/11/13 02:57:59;;;;;;;48.90;28.10;;;;;;;-128.00;-1.00;-1.00;105454;1252;1005135;-80
2023/11/13 03:00:26;;;;;;;36.90;21.90;;;;;;;-128.00;-1.00;-1.00;105493;1253;1003580;-79
2023/11/13 03:02:52;;;;;;;36.30;20.60;;;;;;;-128.00;-1.00;-1.00;105432;1253;1003761;-80
2023/11/13 03:05:19;;;;;;;43.70;26.70;;;;;;;-128.00;-1.00;-1.00;105467;1252;1004826;-79
2023/11/13 03:07:46;;;;;;;39.30;25.90;;;;;;;-128.00;-1.00;-1.00;105449;1253;1004612;-80
2023/11/13 03:10:12;;;;;;;42.00;22.00;;;;;;;-128.00;-1.00;-1.00;105479;1252;1003802;-80
2023/11/13 03:12:41;;;;;;;46.80;23.70;;;;;;;-128.00;-1.00;-1.00;105425;1253;1003980;-80
2023/11/13 03:15:11;;;;;;;50.40;24.80;;;;;;;-128.00;-1.00;-1.00;105456;1252;1059193;-80
2023/11/13 03:17:38;;;;;;;46.20;30.30;;;;;;;-128.00;-1.00;-1.00;105368;1253;1045157;-79
2023/11/13 03:20:06;;;;;;;55.80;33.20;;;;;;;-128.00;-1.00;-1.00;105356;1253;1004779;-79
2023/11/13 03:22:33;;;;;;;47.30;26.00;;;;;;;-128.00;-1.00;-1.00;105464;1253;1061363;-79
2023/11/13 03:25:00;;;;;;;34.10;20.70;;;;;;;-128.00;-1.00;-1.00;105492;1252;1004912;-80
2023/11/13 03:27:27;;;;;;;31.50;18.90;;;;;;;-128.00;-1.00;-1.00;105391;1253;1004189;-79
2023/11/13 03:29:53;;;;;;;33.80;20.20;;;;;;;-128.00;-1.00;-1.00;105453;1253;1005076;-79
2023/11/13 03:32:20;;;;;;;48.20;32.90;;;;;;;-128.00;-1.00;-1.00;105457;1255;1004236;-79
2023/11/13 03:34:46;;;;;;;34.30;20.60;;;;;;;-128.00;-1.00;-1.00;105463;1252;1004208;-79
2023/11/13 03:37:13;;;;;;;38.00;22.40;;;;;;;-128.00;-1.00;-1.00;105444;1253;1004635;-79
2023/11/13 03:39:40;;;;;;;27.20;18.00;;;;;;;-128.00;-1.00;-1.00;105446;1252;1004662;-80
2023/11/13 03:42:08;;;;;;;30.30;19.40;;;;;;;-128.00;-1.00;-1.00;105422;1252;1005094;-79
2023/11/13 03:44:35;;;;;;;55.70;41.50;;;;;;;-128.00;-1.00;-1.00;105519;1253;1004219;-80
2023/11/13 03:47:02;;;;;;;35.00;22.30;;;;;;;-128.00;-1.00;-1.00;105416;1253;1003844;-79
2023/11/13 03:49:28;;;;;;;41.00;21.50;;;;;;;-128.00;-1.00;-1.00;105495;1252;1005272;-80
2023/11/13 03:51:55;;;;;;;37.40;20.30;;;;;;;-128.00;-1.00;-1.00;105454;1252;1004063;-80
2023/11/13 03:54:22;;;;;;;41.50;24.80;;;;;;;-128.00;-1.00;-1.00;105440;1253;1003381;-79
2023/11/13 03:56:48;;;;;;;46.90;31.30;;;;;;;-128.00;-1.00;-1.00;105474;1252;1004630;-79
2023/11/13 03:59:15;;;;;;;42.80;23.40;;;;;;;-128.00;-1.00;-1.00;105464;1253;1004808;-79
2023/11/13 04:01:42;;;;;;;36.60;22.30;;;;;;;-128.00;-1.00;-1.00;105472;1252;1003933;-79
2023/11/13 04:04:09;;;;;;;37.90;22.10;;;;;;;-128.00;-1.00;-1.00;105291;1253;1004866;-79
2023/11/13 04:06:35;;;;;;;51.20;30.00;;;;;;;-128.00;-1.00;-1.00;105428;1252;1006352;-79
2023/11/13 04:09:02;;;;;;;68.70;48.70;;;;;;;-128.00;-1.00;-1.00;105424;1253;1004317;-79
2023/11/13 04:11:29;;;;;;;49.30;28.90;;;;;;;-128.00;-1.00;-1.00;105477;1252;1003870;-80
2023/11/13 04:13:56;;;;;;;36.00;21.60;;;;;;;-128.00;-1.00;-1.00;105446;1253;1003388;-80
2023/11/13 04:16:22;;;;;;;30.10;18.00;;;;;;;-128.00;-1.00;-1.00;105417;1252;1004158;-79
2023/11/13 04:18:49;;;;;;;44.80;28.00;;;;;;;-128.00;-1.00;-1.00;105393;1252;1004305;-80
2023/11/13 04:21:16;;;;;;;37.30;22.40;;;;;;;-128.00;-1.00;-1.00;105400;1253;1005020;-80
2023/11/13 04:23:42;;;;;;;47.20;23.00;;;;;;;-128.00;-1.00;-1.00;105390;1253;1004595;-80
2023/11/13 04:26:09;;;;;;;32.60;18.50;;;;;;;-128.00;-1.00;-1.00;105462;1252;1004418;-79
2023/11/13 04:28:35;;;;;;;43.10;19.80;;;;;;;-128.00;-1.00;-1.00;105373;1253;1003982;-80
2023/11/13 04:31:02;;;;;;;33.50;20.60;;;;;;;-128.00;-1.00;-1.00;105424;1252;1004415;-79
2023/11/13 04:33:29;;;;;;;44.40;25.60;;;;;;;-128.00;-1.00;-1.00;105421;1252;1004897;-79
2023/11/13 04:35:57;;;;;;;36.90;22.80;;;;;;;-128.00;-1.00;-1.00;105460;1252;1004204;-79
2023/11/13 04:38:24;;;;;;;33.40;19.10;;;;;;;-128.00;-1.00;-1.00;105394;1252;1058008;-79
2023/11/13 04:40:50;;;;;;;32.50;18.20;;;;;;;-128.00;-1.00;-1.00;105426;1252;1003855;-79
2023/11/13 04:43:17;;;;;;;39.20;20.50;;;;;;;-128.00;-1.00;-1.00;105373;1253;1004284;-79
2023/11/13 04:45:44;;;;;;;54.60;35.70;;;;;;;-128.00;-1.00;-1.00;105439;1252;1004446;-81
2023/11/13 04:48:10;;;;;;;58.70;34.70;;;;;;;-128.00;-1.00;-1.00;105370;1252;1004397;-80
2023/11/13 04:50:37;;;;;;;52.80;28.20;;;;;;;-128.00;-1.00;-1.00;105468;1252;1004633;-80
2023/11/13 04:53:03;;;;;;;48.30;25.00;;;;;;;-128.00;-1.00;-1.00;105391;1252;1004313;-79
2023/11/13 04:55:30;;;;;;;44.00;23.50;;;;;;;-128.00;-1.00;-1.00;105468;1252;1004491;-79
2023/11/13 04:57:57;;;;;;;34.20;19.00;;;;;;;-128.00;-1.00;-1.00;105394;1252;1004904;-79
2023/11/13 05:00:23;;;;;;;33.20;19.20;;;;;;;-128.00;-1.00;-1.00;105446;1252;1003621;-79
2023/11/13 05:02:50;;;;;;;27.60;16.80;;;;;;;-128.00;-1.00;-1.00;105398;1252;1004754;-79
2023/11/13 05:05:16;;;;;;;31.90;17.60;;;;;;;-128.00;-1.00;-1.00;105419;1252;1004572;-79
2023/11/13 05:07:43;;;;;;;33.00;19.40;;;;;;;-128.00;-1.00;-1.00;105414;1252;1004331;-79
2023/11/13 05:10:10;;;;;;;40.60;20.50;;;;;;;-128.00;-1.00;-1.00;105405;1253;1003618;-79
2023/11/13 05:12:38;;;;;;;76.10;42.10;;;;;;;-128.00;-1.00;-1.00;105446;1252;1004037;-79
2023/11/13 05:15:05;;;;;;;54.10;31.60;;;;;;;-128.00;-1.00;-1.00;105472;1252;1003947;-80
2023/11/13 05:17:31;;;;;;;42.00;23.00;;;;;;;-128.00;-1.00;-1.00;105379;1253;1004936;-79
2023/11/13 05:20:00;;;;;;;52.90;32.70;;;;;;;-128.00;-1.00;-1.00;105460;1252;1004879;-79
2023/11/13 05:22:26;;;;;;;52.90;34.20;;;;;;;-128.00;-1.00;-1.00;105440;1253;1046997;-79
2023/11/13 05:24:53;;;;;;;49.50;27.60;;;;;;;-128.00;-1.00;-1.00;105493;1252;1003967;-79
2023/11/13 05:27:19;;;;;;;44.80;24.70;;;;;;;-128.00;-1.00;-1.00;105441;1252;1004730;-79
2023/11/13 05:29:46;;;;;;;31.70;19.70;;;;;;;-128.00;-1.00;-1.00;105441;1253;1004097;-79
2023/11/13 05:32:12;;;;;;;45.20;24.40;;;;;;;-128.00;-1.00;-1.00;105409;1253;1004418;-79
2023/11/13 05:34:40;;;;;;;47.80;33.30;;;;;;;-128.00;-1.00;-1.00;105489;1252;1004517;-79
2023/11/13 05:37:06;;;;;;;48.50;24.40;;;;;;;-128.00;-1.00;-1.00;105420;1253;1004025;-79
2023/11/13 05:39:33;;;;;;;37.20;21.00;;;;;;;-128.00;-1.00;-1.00;105504;1252;1004541;-79
2023/11/13 05:42:00;;;;;;;41.40;23.10;;;;;;;-128.00;-1.00;-1.00;105476;1252;1004681;-79
2023/11/13 05:44:27;;;;;;;43.30;28.20;;;;;;;-128.00;-1.00;-1.00;105444;1253;1003946;-79
2023/11/13 05:46:53;;;;;;;38.10;24.60;;;;;;;-128.00;-1.00;-1.00;105473;1253;1004309;-79
2023/11/13 05:49:20;;;;;;;32.60;21.10;;;;;;;-128.00;-1.00;-1.00;105508;1252;1004791;-79
2023/11/13 05:51:47;;;;;;;37.60;21.90;;;;;;;-128.00;-1.00;-1.00;105428;1252;1004740;-80
2023/11/13 05:54:14;;;;;;;38.40;21.10;;;;;;;-128.00;-1.00;-1.00;105402;1252;1004331;-79
2023/11/13 05:56:40;;;;;;;41.00;27.40;;;;;;;-128.00;-1.00;-1.00;105462;1252;1004308;-79
2023/11/13 05:59:09;;;;;;;40.80;25.00;;;;;;;-128.00;-1.00;-1.00;105470;1252;1003909;-79
2023/11/13 06:01:35;;;;;;;33.50;19.60;;;;;;;-128.00;-1.00;-1.00;105496;1252;1003500;-79
2023/11/13 06:04:01;;;;;;;28.00;16.70;;;;;;;-128.00;-1.00;-1.00;105421;1252;1003910;-80
2023/11/13 06:06:28;;;;;;;28.20;17.40;;;;;;;-128.00;-1.00;-1.00;105329;1253;1005060;-79
2023/11/13 06:08:55;;;;;;;47.00;23.80;;;;;;;-128.00;-1.00;-1.00;105439;1252;1004943;-80
2023/11/13 06:11:21;;;;;;;37.90;24.60;;;;;;;-128.00;-1.00;-1.00;105480;1252;1003818;-79
2023/11/13 06:13:48;;;;;;;47.30;21.80;;;;;;;-128.00;-1.00;-1.00;105454;1252;1003269;-79
2023/11/13 06:16:15;;;;;;;35.30;21.10;;;;;;;-128.00;-1.00;-1.00;105492;1252;1003959;-79
2023/11/13 06:18:46;;;;;;;35.10;20.90;;;;;;;-128.00;-1.00;-1.00;105419;1252;1004025;-79
2023/11/13 06:21:13;;;;;;;45.60;23.70;;;;;;;-128.00;-1.00;-1.00;105492;1253;1046152;-80
2023/11/13 06:23:42;;;;;;;37.70;24.50;;;;;;;-128.00;-1.00;-1.00;105547;1251;1004602;-80
2023/11/13 06:26:14;;;;;;;39.50;21.80;;;;;;;-128.00;-1.00;-1.00;105390;1253;1004592;-79
2023/11/13 06:28:41;;;;;;;37.70;20.00;;;;;;;-128.00;-1.00;-1.00;105526;1251;1058317;-79
2023/11/13 06:31:11;;;;;;;33.00;19.40;;;;;;;-128.00;-1.00;-1.00;105334;1252;1004963;-79
2023/11/13 06:33:37;;;;;;;51.60;29.00;;;;;;;-128.00;-1.00;-1.00;105172;1251;1046672;-80
2023/11/13 06:36:05;;;;;;;53.10;33.60;;;;;;;-128.00;-1.00;-1.00;105434;1253;1004303;-80
2023/11/13 06:38:32;;;;;;;42.10;22.10;;;;;;;-128.00;-1.00;-1.00;105531;1251;1005010;-79
2023/11/13 06:40:59;;;;;;;35.70;19.90;;;;;;;-128.00;-1.00;-1.00;105507;1252;1003508;-79
2023/11/13 06:43:26;;;;;;;27.90;17.00;;;;;;;-128.00;-1.00;-1.00;105392;1251;1004570;-80
2023/11/13 06:45:53;;;;;;;46.70;29.80;;;;;;;-128.00;-1.00;-1.00;105503;1252;1003811;-80
2023/11/13 06:48:19;;;;;;;70.30;50.50;;;;;;;-128.00;-1.00;-1.00;105471;1253;1003964;-80
2023/11/13 06:50:46;;;;;;;43.10;27.20;;;;;;;-128.00;-1.00;-1.00;105321;1252;1004099;-80
2023/11/13 06:53:13;;;;;;;50.60;26.30;;;;;;;-128.00;-1.00;-1.00;105403;1252;1004342;-79
2023/11/13 06:55:40;;;;;;;38.10;20.70;;;;;;;-128.00;-1.00;-1.00;105362;1253;1004409;-79
2023/11/13 06:58:11;;;;;;;51.80;33.70;;;;;;;-128.00;-1.00;-1.00;105417;1252;1004334;-80
2023/11/13 07:00:37;;;;;;;74.20;53.10;;;;;;;-128.00;-1.00;-1.00;105483;1251;1046727;-79
2023/11/13 07:03:04;;;;;;;61.90;35.60;;;;;;;-128.00;-1.00;-1.00;105493;1252;1004421;-79
2023/11/13 07:05:31;;;;;;;53.10;29.40;;;;;;;-128.00;-1.00;-1.00;105308;1253;1004312;-79
2023/11/13 07:07:59;;;;;;;41.10;21.30;;;;;;;-128.00;-1.00;-1.00;105459;1252;1004127;-79
2023/11/13 07:10:26;;;;;;;34.70;20.80;;;;;;;-128.00;-1.00;-1.00;105438;1252;1004088;-80
2023/11/13 07:12:53;;;;;;;33.50;18.50;;;;;;;-128.00;-1.00;-1.00;105413;1253;1004213;-79
2023/11/13 07:15:19;;;;;;;30.60;15.30;;;;;;;-128.00;-1.00;-1.00;105326;1251;1005021;-80
2023/11/13 07:17:46;;;;;;;38.60;19.70;;;;;;;-128.00;-1.00;-1.00;105378;1252;1004946;-80
2023/11/13 07:20:13;;;;;;;32.30;20.40;;;;;;;-128.00;-1.00;-1.00;105423;1252;1004194;-80
2023/11/13 07:22:40;;;;;;;27.30;17.40;;;;;;;-128.00;-1.00;-1.00;105350;1253;1003339;-80
2023/11/13 07:25:07;;;;;;;25.10;15.00;;;;;;;-128.00;-1.00;-1.00;105463;1251;1004300;-79
2023/11/13 07:27:34;;;;;;;34.70;18.20;;;;;;;-128.00;-1.00;-1.00;105414;1252;1004539;-79
2023/11/13 07:30:01;;;;;;;25.40;16.80;;;;;;;-128.00;-1.00;-1.00;105430;1252;1004201;-79
2023/11/13 07:32:27;;;;;;;24.30;16.40;;;;;;;-128.00;-1.00;-1.00;105286;1252;1004283;-79
2023/11/13 07:34:54;;;;;;;34.20;19.20;;;;;;;-128.00;-1.00;-1.00;105392;1252;1004075;-79
2023/11/13 07:37:23;;;;;;;28.80;16.10;;;;;;;-128.00;-1.00;-1.00;105498;1251;1003967;-78
2023/11/13 07:39:53;;;;;;;33.20;18.80;;;;;;;-128.00;-1.00;-1.00;105305;1253;1060777;-78
2023/11/13 07:42:20;;;;;;;37.60;19.00;;;;;;;-128.00;-1.00;-1.00;105337;1252;1058215;-79
2023/11/13 07:44:50;;;;;;;27.40;17.10;;;;;;;-128.00;-1.00;-1.00;105399;1251;1003979;-79
2023/11/13 07:47:17;;;;;;;34.30;20.60;;;;;;;-128.00;-1.00;-1.00;105293;1251;1045235;-78
2023/11/13 07:49:44;;;;;;;28.40;17.10;;;;;;;-128.00;-1.00;-1.00;105295;1253;1004196;-79
2023/11/13 07:52:12;;;;;;;35.10;21.50;;;;;;;-128.00;-1.00;-1.00;105270;1252;1003454;-79
2023/11/13 07:54:40;;;;;;;28.80;18.90;;;;;;;-128.00;-1.00;-1.00;105379;1252;1005521;-79
2023/11/13 07:57:09;;;;;;;31.10;21.40;;;;;;;-128.00;-1.00;-1.00;105392;1251;1003880;-79
2023/11/13 07:59:37;;;;;;;27.00;14.70;;;;;;;-128.00;-1.00;-1.00;105338;1252;1045292;-78
2023/11/13 08:02:03;;;;;;;27.10;16.70;;;;;;;-128.00;-1.00;-1.00;105183;1256;1004752;-79
2023/11/13 08:04:31;;;;;;;23.90;13.30;;;;;;;-128.00;-1.00;-1.00;105304;1253;1004207;-78
2023/11/13 08:06:57;;;;;;;21.70;14.50;;;;;;;-128.00;-1.00;-1.00;105373;1254;1004626;-79
2023/11/13 08:09:24;;;;;;;28.20;15.80;;;;;;;-128.00;-1.00;-1.00;105382;1253;1004025;-79
2023/11/13 08:11:50;;;;;;;25.10;14.80;;;;;;;-128.00;-1.00;-1.00;105280;1252;1004799;-79
2023/11/13 08:14:17;;;;;;;24.60;15.70;;;;;;;-128.00;-1.00;-1.00;105408;1253;1003972;-79
2023/11/13 08:16:44;;;;;;;25.80;14.90;;;;;;;-128.00;-1.00;-1.00;105385;1253;1003937;-79
2023/11/13 08:19:11;;;;;;;25.10;13.50;;;;;;;-128.00;-1.00;-1.00;105339;1253;1003892;-79
2023/11/13 08:21:37;;;;;;;22.80;12.70;;;;;;;-128.00;-1.00;-1.00;105234;1252;1004101;-80
2023/11/13 08:24:06;;;;;;;29.20;14.80;;;;;;;-128.00;-1.00;-1.00;105333;1252;1005120;-79
2023/11/13 08:26:33;;;;;;;35.50;19.80;;;;;;;-128.00;-1.00;-1.00;105372;1255;1047548;-78
2023/11/13 08:28:59;;;;;;;30.00;16.10;;;;;;;-128.00;-1.00;-1.00;105265;1253;1004098;-79
2023/11/13 08:31:26;;;;;;;32.20;15.40;;;;;;;-128.00;-1.00;-1.00;105343;1253;1003589;-79
2023/11/13 08:33:54;;;;;;;51.60;27.40;;;;;;;-128.00;-1.00;-1.00;105269;1253;1004711;-79
2023/11/13 08:36:22;;;;;;;41.90;19.50;;;;;;;-128.00;-1.00;-1.00;105595;1253;1045583;-79
2023/11/13 08:38:49;;;;;;;57.00;23.30;;;;;;;-128.00;-1.00;-1.00;105362;1252;1004699;-79
2023/11/13 08:41:18;;;;;;;49.70;23.60;;;;;;;-128.00;-1.00;-1.00;105248;1253;1003750;-79
2023/11/13 08:43:45;;;;;;;66.60;24.70;;;;;;;-128.00;-1.00;-1.00;105567;1253;1005520;-79
2023/11/13 08:46:14;;;;;;;64.50;27.20;;;;;;;-128.00;-1.00;-1.00;105413;1253;1004309;-79
2023/11/13 08:48:41;;;;;;;48.40;20.80;;;;;;;-128.00;-1.00;-1.00;105269;1253;1045852;-79
2023/11/13 08:51:08;;;;;;;40.70;18.20;;;;;;;-128.00;-1.00;-1.00;105334;1252;1004462;-79
2023/11/13 08:53:39;;;;;;;39.30;18.00;;;;;;;-128.00;-1.00;-1.00;105338;1251;1004961;-79
2023/11/13 08:56:08;;;;;;;29.30;14.10;;;;;;;-128.00;-1.00;-1.00;105428;1251;1058276;-79
2023/11/13 08:58:37;;;;;;;29.00;14.70;;;;;;;-128.00;-1.00;-1.00;105358;1251;1058481;-79
2023/11/13 09:01:07;;;;;;;25.30;11.20;;;;;;;-128.00;-1.00;-1.00;105396;1252;1046403;-80
2023/11/13 09:03:34;;;;;;;23.80;12.20;;;;;;;-128.00;-1.00;-1.00;105522;1255;1046779;-79
2023/11/13 09:06:04;;;;;;;23.70;12.40;;;;;;;-128.00;-1.00;-1.00;105381;1251;1003260;-79
2023/11/13 09:08:31;;;;;;;16.20;10.00;;;;;;;-128.00;-1.00;-1.00;105409;1251;1057866;-78
2023/11/13 09:10:58;;;;;;;22.90;11.30;;;;;;;-128.00;-1.00;-1.00;105438;1252;1004482;-79
2023/11/13 09:13:24;;;;;;;21.40;10.10;;;;;;;-128.00;-1.00;-1.00;105355;1253;1004405;-79
2023/11/13 09:15:51;;;;;;;31.00;13.10;;;;;;;-128.00;-1.00;-1.00;105348;1253;1004639;-78
2023/11/13 09:18:21;;;;;;;27.70;13.10;;;;;;;-128.00;-1.00;-1.00;105298;1253;1004163;-79
2023/11/13 09:20:48;;;;;;;22.30;12.40;;;;;;;-128.00;-1.00;-1.00;105379;1253;1058885;-78
2023/11/13 09:23:15;;;;;;;31.00;14.80;;;;;;;-128.00;-1.00;-1.00;105356;1252;1004337;-79
2023/11/13 09:25:42;;;;;;;14.10;10.00;;;;;;;-128.00;-1.00;-1.00;105363;1253;1005013;-78
2023/11/13 09:28:09;;;;;;;20.80;11.70;;;;;;;-128.00;-1.00;-1.00;105416;1253;1003696;-78
2023/11/13 09:30:35;;;;;;;19.60;10.50;;;;;;;-128.00;-1.00;-1.00;105356;1254;1004556;-78
2023/11/13 09:33:05;;;;;;;19.30;10.60;;;;;;;-128.00;-1.00;-1.00;105323;1253;1004014;-78
2023/11/13 09:35:33;;;;;;;19.80;10.60;;;;;;;-128.00;-1.00;-1.00;105243;1253;1058881;-79
2023/11/13 09:38:01;;;;;;;31.30;15.00;;;;;;;-128.00;-1.00;-1.00;105322;1253;1004627;-79
2023/11/13 09:40:29;;;;;;;23.70;12.70;;;;;;;-128.00;-1.00;-1.00;105340;1253;1047363;-78
2023/11/13 09:43:07;;;;;;;41.10;19.70;;;;;;;-128.00;-1.00;-1.00;105297;1253;1005195;-79
2023/11/13 09:45:37;;;;;;;22.00;11.00;;;;;;;-128.00;-1.00;-1.00;105284;1253;1058558;-79
2023/11/13 09:48:05;;;;;;;13.50;9.80;;;;;;;-128.00;-1.00;-1.00;105293;1251;1061949;-79
2023/11/13 09:50:33;;;;;;;21.10;10.70;;;;;;;-128.00;-1.00;-1.00;105364;1252;1004493;-79
2023/11/13 09:53:03;;;;;;;24.00;10.70;;;;;;;-128.00;-1.00;-1.00;105327;1253;1047522;-79
2023/11/13 09:55:29;;;;;;;16.50;6.20;;;;;;;-128.00;-1.00;-1.00;105253;1253;1062349;-78
2023/11/13 09:57:56;;;;;;;10.60;4.90;;;;;;;-128.00;-1.00;-1.00;105388;1253;1004273;-78
2023/11/13 10:00:24;;;;;;;13.00;6.90;;;;;;;-128.00;-1.00;-1.00;105372;1254;1004577;-78
2023/11/13 10:02:53;;;;;;;13.80;7.40;;;;;;;-128.00;-1.00;-1.00;105208;1257;1005092;-78
2023/11/13 10:05:27;;;;;;;11.40;6.10;;;;;;;-128.00;-1.00;-1.00;105282;1252;1047801;-79
2023/11/13 10:07:55;;;;;;;50.20;29.30;;;;;;;-128.00;-1.00;-1.00;105304;1253;1061536;-79
2023/11/13 10:10:25;;;;;;;12.50;7.90;;;;;;;-128.00;-1.00;-1.00;105287;1253;1004073;-78
2023/11/13 10:12:53;;;;;;;13.10;6.20;;;;;;;-128.00;-1.00;-1.00;105266;1254;1059455;-79
2023/11/13 10:15:24;;;;;;;10.90;7.10;;;;;;;-128.00;-1.00;-1.00;105340;1253;1003672;-79
2023/11/13 10:17:52;;;;;;;10.40;6.10;;;;;;;-128.00;-1.00;-1.00;105263;1253;1046448;-79
2023/11/13 10:20:22;;;;;;;10.40;6.70;;;;;;;-128.00;-1.00;-1.00;105488;1254;1004002;-79
2023/11/13 10:22:58;;;;;;;10.00;6.00;;;;;;;-128.00;-1.00;-1.00;105302;1253;1058737;-78
2023/11/13 10:25:27;;;;;;;16.50;9.10;;;;;;;-128.00;-1.00;-1.00;105335;1253;1058902;-78
2023/11/13 10:28:01;;;;;;;20.90;10.10;;;;;;;-128.00;-1.00;-1.00;105254;1253;1046674;-79
2023/11/13 10:30:29;;;;;;;9.20;5.60;;;;;;;-128.00;-1.00;-1.00;105171;1253;1046480;-79
2023/11/13 10:32:59;;;;;;;8.10;4.50;;;;;;;-128.00;-1.00;-1.00;105434;1251;1004776;-79
2023/11/13 10:35:27;;;;;;;17.30;8.00;;;;;;;-128.00;-1.00;-1.00;105230;1253;1058648;-80
2023/11/13 10:37:55;;;;;;;28.20;16.40;;;;;;;-128.00;-1.00;-1.00;105411;1251;1059601;-79
2023/11/13 10:40:28;;;;;;;10.30;6.50;;;;;;;-128.00;-1.00;-1.00;105309;1253;1004487;-79
2023/11/13 10:42:54;;;;;;;5.30;2.90;;;;;;;-128.00;-1.00;-1.00;105250;1253;1048038;-78
2023/11/13 10:45:21;;;;;;;3.90;2.40;;;;;;;-128.00;-1.00;-1.00;105296;1253;1004273;-79
2023/11/13 10:47:51;;;;;;;5.20;2.80;;;;;;;-128.00;-1.00;-1.00;105363;1253;1004582;-79
2023/11/13 10:50:23;;;;;;;7.50;4.50;;;;;;;-128.00;-1.00;-1.00;105379;1253;1060249;-79
2023/11/13 10:52:50;;;;;;;10.10;4.00;;;;;;;-128.00;-1.00;-1.00;105322;1251;1045685;-79
2023/11/13 10:55:19;;;;;;;15.50;10.60;;;;;;;-128.00;-1.00;-1.00;105256;1253;1004958;-79
2023/11/13 10:57:46;;;;;;;20.00;15.10;;;;;;;-128.00;-1.00;-1.00;105350;1253;1062612;-79
2023/11/13 11:00:14;;;;;;;8.00;4.30;;;;;;;-128.00;-1.00;-1.00;105278;1251;1004935;-79
2023/11/13 11:02:45;;;;;;;11.90;7.40;;;;;;;-128.00;-1.00;-1.00;105312;1252;1004713;-79